ADDS METAR Data INFO
IDs: Format: Raw Decoded Include TAF

Data at: 1730 UTC 21 Sep 2017

KJAC 211656Z 00000KT 7SM OVC004 02/01 A2982 RMK AO2 CIG 002V009 SLP105 P0005 T00170011
KJAC 211637Z 00000KT 9SM BKN004 BKN011 OVC031 01/01 A2981 RMK AO2 P0003
KJAC 211627Z 00000KT 8SM FEW004 BKN026 OVC031 01/01 A2981 RMK AO2 P0002
KJAC 211556Z 00000KT 4SM OVC026 01/01 A2980 RMK AO2 SLP093 P0001 T00110006
KJAC 211551Z 00000KT 2SM OVC026 01/01 A2980 RMK AO2 P0001
KJAC 211528Z 27005KT 10SM OVC028 01/01 A2982 RMK AO2 PRESRR
KJAC 211456Z 00000KT 3SM BKN032 OVC039 01/00 A2979 RMK AO2 SLP089 60007 T00060000 55002
KJAC 211437Z 00000KT 4SM SCT005 SCT013 OVC030 01/00 A2981 RMK AO2
KJAC 211430Z 00000KT 3SM SCT005 BKN019 OVC030 01/00 A2981 RMK AO2
KJAC 211422Z 00000KT 3SM BKN005 BKN013 OVC018 01/00 A2981 RMK AO2
KJAC 211408Z 00000KT 4SM BKN003 OVC018 01/00 A2980 RMK AO2 CIG 002V006
KJAC 211359Z 00000KT 2 1/2SM SCT003 SCT012 OVC018 01/00 A2980 RMK AO2 VIS 1 3/4V3
KJAC 211356Z 00000KT 2 1/2SM BKN003 BKN012 OVC016 01/00 A2980 RMK AO2 VIS 1 3/4V3 SLP088 P0002 T00060000
KJAC 211353Z 15003KT 2 1/2SM BKN003 OVC016 01/00 A2980 RMK AO2 VIS 2V3 P0002
KJAC 211345Z 12004KT 2SM SCT003 BKN014 OVC018 01/00 A2980 RMK AO2 VIS 1V3 P0002
KJAC 211337Z 11003KT 1 3/4SM FEW003 BKN014 OVC018 01/00 A2980 RMK AO2 VIS 1V4 P0001
KJAC 211327Z 13005KT 1 1/2SM FEW003 BKN015 OVC020 01/00 A2980 RMK AO2 VIS 1V2 P0001
KJAC 211312Z 00000KT 1 3/4SM OVC014 01/00 A2980 RMK AO2 VIS 1 1/4V3 P0001
KJAC 211307Z 00000KT 2 1/2SM FEW010 OVC016 01/00 A2980 RMK AO2 P0001
KJAC 211256Z 00000KT 5SM OVC014 01/00 A2979 RMK AO2 SLP081 P0005 T00060000
KJAC 211248Z 00000KT 6SM FEW009 OVC014 01/00 A2979 RMK AO2 P0005
KJAC 211241Z AUTO 00000KT 5SM BKN014 BKN024 OVC030 01/00 A2978 RMK AO2 P0004
KJAC 211233Z AUTO 00000KT 6SM BKN016 BKN024 OVC032 01/00 A2978 RMK AO2 P0003
KJAC 211211Z AUTO 00000KT 5SM SCT020 OVC032 01/00 A2977 RMK AO2 P0001
KJAC 211156Z AUTO 08003KT 4SM BKN018 OVC032 01/00 A2978 RMK AO2 SLP075 P0007 6//// 7//// T00060000 10044 20006 57006
KJAC 211056Z AUTO 00000KT 6SM SCT006 OVC021 01/01 A2978 RMK AO2 SLP077 P0009 T00060006
KJAC 210956Z AUTO 05003KT 10SM OVC006 02/01 A2979 RMK AO2 SLP075 P0009 T00170011
KJAC 210939Z AUTO 00000KT 10SM BKN006 OVC025 02/01 A2980 RMK AO2 P0007
KJAC 210856Z AUTO 23003KT 10SM OVC025 03/02 A2980 RMK AO2 SLP080 P0008 6//// T00280017 55003
KJAC 210829Z AUTO 00000KT 9SM SCT005 OVC030 03/02 A2980 RMK AO2 P0004
KJAC 210820Z AUTO 24003KT 9SM SCT005 BKN021 OVC028 03/02 A2980 RMK AO2 P0003
KJAC 210809Z AUTO 28003KT 10SM BKN005 OVC013 03/02 A2979 RMK AO2 CIG 003V007 P0002
KJAC 210756Z AUTO 32004KT 10SM BKN008 OVC013 03/02 A2978 RMK AO2 CIG 005V010 SLP076 P0009 T00280022
KJAC 210719Z AUTO 24005KT 10SM BKN009 OVC014 03/02 A2980 RMK AO2 CIG 006V011 P0004
KJAC 210703Z AUTO 22004KT 7SM OVC013 03/02 A2982 RMK AO2 P0001
KJAC 210656Z AUTO 00000KT 7SM OVC015 03/02 A2980 RMK AO2 SLP085 T00330022 401280011
KJAC 210556Z AUTO 18007KT 9SM BKN022 OVC031 04/04 A2981 RMK AO2 SLP087 6//// T00440039 10111 20044 55001
KJAC 210546Z AUTO 18007KT 10SM FEW020 OVC031 04/03 A2981 RMK AO2
KJAC 210519Z AUTO 18009KT 10SM FEW009 BKN023 OVC029 05/04 A2981 RMK AO2
KJAC 210456Z AUTO 22005KT 10SM OVC025 05/04 A2981 RMK AO2 SLP084 P0004 T00500039
KJAC 210444Z AUTO 24004KT 9SM BKN025 OVC041 05/04 A2981 RMK AO2 P0003
KJAC 210356Z AUTO VRB04KT 10SM OVC037 06/03 A2980 RMK AO2 SLP082 P0001 T00610033
KJAC 210256Z AUTO 21006KT 10SM FEW048 SCT060 OVC075 08/02 A2982 RMK AO2 SLP086 T00830017 53004
KJAC 210156Z 21009KT 10SM BKN065 OVC080 09/00 A2980 RMK AO2 SLP083 T00940000
KJAC 210056Z 21011KT 10SM BKN065 11/M01 A2979 RMK AO2 SLP073 T01061011
KJAC 202356Z 20011KT 10SM SCT065 BKN090 11/M01 A2980 RMK AO2 SLP078 T01111011 10128 20078 56003
KJAC 202256Z 20012KT 10SM FEW080 SCT095 11/M01 A2980 RMK AO2 SLP082 T01111011
KJAC 202156Z 21015G22KT 10SM BKN065 OVC080 12/M01 A2981 RMK AO2 SLP077 T01221011
KJAC 202056Z 20012G22KT 10SM OVC065 11/M02 A2981 RMK AO2 PK WND 20027/2024 SLP085 T01061017 58014
KJAC 201956Z 18012G21KT 10SM OVC060 09/M02 A2983 RMK AO2 SLP093 T00941017
KJAC 201856Z 20004KT 10SM BKN048 OVC060 08/M02 A2986 RMK AO2 SLP108 T00781017
KJAC 201756Z 20011KT 10SM BKN050 OVC070 08/M02 A2986 RMK AO2 SLP108 T00781022 10089 20022 58011
KJAC 201656Z 21016G22KT 10SM FEW045 SCT060 BKN080 08/M03 A2988 RMK AO2 PK WND 19027/1625 SLP111 T00831028
KJAC 201556Z 22014G20KT 10SM CLR 07/M03 A2989 RMK AO2 SLP120 T00721028
KJAC 201456Z 23012KT 10SM FEW049 BKN060 OVC075 05/M02 A2990 RMK AO2 SLP127 T00501022 58003
KJAC 201356Z 24007KT 10SM FEW042 SCT050 OVC070 02/M02 A2992 RMK AO2 SLP138 T00221017
KJAC 201256Z 19012KT 10SM OVC045 03/M03 A2992 RMK AO2 SLP134 T00331028
KJAC 201156Z 20008KT 10SM OVC047 03/M03 A2991 RMK AO2 SLP131 70011 T00331028 10039 20011 53000
KJAC 201056Z 26005KT 10SM BKN049 OVC060 02/M02 A2991 RMK AO2 SLP134 T00221022
KJAC 200956Z 20011KT 10SM FEW049 OVC075 03/M03 A2990 RMK AO2 SLP124 T00331033
KJAC 200856Z 20010KT 10SM SCT070 02/M03 A2991 RMK AO2 SLP137 T00221028 53002
KJAC 200756Z 21011KT 10SM FEW046 02/M03 A2990 RMK AO2 SLP134 T00221033
KJAC 200656Z 17010G20KT 10SM SCT047 03/M04 A2991 RMK AO2 SLP131 T00281044 400780022
KJAC 200556Z 25015G23KT 10SM CLR 03/M05 A2990 RMK AO2 PK WND 24026/0502 SLP131 T00331050 10056 20022 58003